createdAt,value
2023-05-22T00:01:26.750Z,13.17
2023-05-22T00:03:56.202Z,12.10
2023-05-22T00:06:27.990Z,15.33
2023-05-22T00:08:57.162Z,12.27
2023-05-22T00:11:26.429Z,16.77
2023-05-22T00:14:06.068Z,15.87
2023-05-22T00:16:35.327Z,17.10
2023-05-22T00:19:04.787Z,14.83
2023-05-22T00:21:44.335Z,11.10
2023-05-22T00:24:13.740Z,12.93
2023-05-22T00:26:43.194Z,12.60
2023-05-22T00:29:12.653Z,14.87
2023-05-22T00:31:41.797Z,13.47
2023-05-22T00:34:11.027Z,9.93
2023-05-22T00:36:40.294Z,11.80
2023-05-22T00:39:11.177Z,11.20
2023-05-22T00:41:40.565Z,15.50
2023-05-22T00:44:20.595Z,10.67
2023-05-22T00:46:49.431Z,10.57
2023-05-22T00:49:18.424Z,11.43
2023-05-22T00:51:54.901Z,12.67
2023-05-22T00:54:26.364Z,10.43
2023-05-22T00:56:55.492Z,11.90
2023-05-22T00:59:36.054Z,17.73
2023-05-22T01:02:05.396Z,13.77
2023-05-22T01:04:35.522Z,15.60
2023-05-22T01:07:06.466Z,15.57
2023-05-22T01:09:37.368Z,11.57
2023-05-22T01:12:13.122Z,8.50
2023-05-22T01:14:44.979Z,11.20
2023-05-22T01:17:28.028Z,11.63
2023-05-22T01:20:07.427Z,8.40
2023-05-22T01:22:58.614Z,13.20
2023-05-22T01:25:39.177Z,13.57
2023-05-22T01:31:01.798Z,10.60
2023-05-22T01:33:34.173Z,6.30
2023-05-22T01:36:03.745Z,11.53
2023-05-22T01:38:39.009Z,9.67
2023-05-22T01:41:09.559Z,12.20
2023-05-22T01:43:39.120Z,6.00
2023-05-22T01:46:09.563Z,12.47
2023-05-22T01:48:41.524Z,8.57
2023-05-22T01:51:14.585Z,8.77
2023-05-22T01:53:46.413Z,8.00
2023-05-22T01:56:17.837Z,8.93
2023-05-22T01:58:48.715Z,7.07
2023-05-22T02:01:20.062Z,7.67
2023-05-22T02:03:56.934Z,7.63
2023-05-22T02:06:28.056Z,7.47
2023-05-22T02:08:57.716Z,6.33
2023-05-22T02:11:28.622Z,8.00
2023-05-22T02:14:03.548Z,8.63
2023-05-22T02:16:35.194Z,7.03
2023-05-22T02:19:06.699Z,8.00
2023-05-22T02:21:37.065Z,10.00
2023-05-22T02:24:06.754Z,10.03
2023-05-22T02:26:35.814Z,6.23
2023-05-22T02:29:04.672Z,10.70
2023-05-22T02:31:35.594Z,9.93
2023-05-22T02:34:06.783Z,9.70
2023-05-22T02:36:37.511Z,7.50
2023-05-22T02:39:06.515Z,10.47
2023-05-22T02:41:35.318Z,9.60
2023-05-22T02:44:05.491Z,7.43
2023-05-22T02:46:36.079Z,7.20
2023-05-22T02:49:05.588Z,10.97
2023-05-22T02:51:34.478Z,8.07
2023-05-22T02:54:04.266Z,9.63
2023-05-22T02:56:33.135Z,7.23
2023-05-22T02:59:03.600Z,7.93
2023-05-22T03:01:32.931Z,13.53
2023-05-22T03:04:03.972Z,15.23
2023-05-22T03:06:33.227Z,7.50
2023-05-22T03:09:04.276Z,9.03
2023-05-22T03:11:33.247Z,14.90
2023-05-22T03:14:02.331Z,11.30
2023-05-22T03:16:33.150Z,12.03
2023-05-22T03:19:11.503Z,13.47
2023-05-22T03:21:40.733Z,8.23
2023-05-22T03:24:12.851Z,9.33
2023-05-22T03:26:42.217Z,11.70
2023-05-22T03:29:11.746Z,11.33
2023-05-22T03:31:43.352Z,8.17
2023-05-22T03:34:15.047Z,13.07
2023-05-22T03:36:45.353Z,11.70
2023-05-22T03:39:14.234Z,9.53
2023-05-22T03:41:43.202Z,11.50
2023-05-22T03:44:12.173Z,10.47
2023-05-22T03:46:41.105Z,9.83
2023-05-22T03:49:10.206Z,9.10
2023-05-22T03:51:40.522Z,11.80
2023-05-22T03:54:09.892Z,10.53
2023-05-22T03:56:40.077Z,16.57
2023-05-22T03:59:08.792Z,15.23
2023-05-22T04:01:39.620Z,7.73
2023-05-22T04:04:09.792Z,8.23
2023-05-22T04:06:43.355Z,8.60
2023-05-22T04:09:14.805Z,12.00
2023-05-22T04:11:44.097Z,13.73
2023-05-22T04:14:13.009Z,13.97
2023-05-22T04:17:02.027Z,10.10
2023-05-22T04:19:31.189Z,10.10
2023-05-22T04:22:01.494Z,14.57
2023-05-22T04:24:36.225Z,14.00
2023-05-22T04:27:11.060Z,8.63
2023-05-22T04:29:57.434Z,9.23
2023-05-22T04:32:40.356Z,15.53
2023-05-22T04:35:28.112Z,12.17
2023-05-22T04:37:57.787Z,11.47
2023-05-22T04:40:34.088Z,8.70
2023-05-22T04:43:05.212Z,13.63
2023-05-22T04:45:35.730Z,12.67
2023-05-22T04:48:06.371Z,11.37
2023-05-22T04:50:36.350Z,15.63
2023-05-22T04:53:06.170Z,9.93
2023-05-22T04:55:37.128Z,7.47
2023-05-22T04:58:07.319Z,11.63
2023-05-22T05:00:37.731Z,15.60
2023-05-22T05:03:08.525Z,12.83
2023-05-22T05:05:37.966Z,10.10
2023-05-22T05:08:08.011Z,12.60
2023-05-22T05:10:38.735Z,15.60
2023-05-22T05:13:09.053Z,17.90
2023-05-22T05:15:38.064Z,12.67
2023-05-22T05:18:07.385Z,10.50
2023-05-22T05:20:36.367Z,10.67
2023-05-22T05:23:05.467Z,9.33
2023-05-22T05:25:38.550Z,10.90
2023-05-22T05:28:14.860Z,11.23
2023-05-22T05:30:45.051Z,9.13
2023-05-22T05:33:17.505Z,13.33
2023-05-22T05:35:47.268Z,11.50
2023-05-22T05:38:17.609Z,12.13
2023-05-22T05:40:47.229Z,15.77
2023-05-22T05:43:19.443Z,10.67
2023-05-22T05:45:48.458Z,12.70
2023-05-22T05:48:19.783Z,11.33
2023-05-22T05:50:49.440Z,11.97
2023-05-22T05:53:19.037Z,16.60
2023-05-22T05:55:48.001Z,10.27
2023-05-22T05:58:19.165Z,16.23
2023-05-22T06:01:05.046Z,11.17
2023-05-22T06:03:34.547Z,11.37
2023-05-22T06:06:03.910Z,10.20
2023-05-22T06:08:35.511Z,11.43
2023-05-22T06:11:05.405Z,11.67
2023-05-22T06:13:35.927Z,13.53
2023-05-22T06:16:07.493Z,14.33
2023-05-22T06:18:39.474Z,8.13
2023-05-22T06:21:08.787Z,9.80
2023-05-22T06:23:40.436Z,13.10
2023-05-22T06:26:09.682Z,13.03
2023-05-22T06:28:46.365Z,10.57
2023-05-22T06:31:16.299Z,10.80
2023-05-22T06:33:49.342Z,13.33
2023-05-22T06:36:22.730Z,13.83
2023-05-22T06:39:09.972Z,20.13
2023-05-22T06:41:40.643Z,15.87
2023-05-22T06:44:21.312Z,12.10
2023-05-22T06:46:52.137Z,16.80
2023-05-22T06:49:24.220Z,16.30
2023-05-22T06:51:54.693Z,13.27
2023-05-22T06:54:30.022Z,12.30
2023-05-22T06:57:00.002Z,12.70
2023-05-22T06:59:39.616Z,16.50
2023-05-22T07:02:09.579Z,17.63
2023-05-22T07:04:43.323Z,12.90
2023-05-22T07:07:17.978Z,11.47
2023-05-22T07:09:47.850Z,11.70
2023-05-22T07:12:17.684Z,16.20
2023-05-22T07:14:49.041Z,17.97
2023-05-22T07:17:19.153Z,14.70
2023-05-22T07:19:49.815Z,17.93
2023-05-22T07:22:19.306Z,13.33
2023-05-22T07:24:48.939Z,15.13
2023-05-22T07:27:18.628Z,13.13
2023-05-22T07:29:49.679Z,16.63
2023-05-22T07:32:19.222Z,9.57
2023-05-22T07:34:49.015Z,9.20
2023-05-22T07:37:20.185Z,14.80
2023-05-22T07:39:51.433Z,18.43
2023-05-22T07:42:22.635Z,15.50
2023-05-22T07:44:57.526Z,13.37
2023-05-22T07:47:28.380Z,17.17
2023-05-22T07:49:58.671Z,14.10
2023-05-22T07:52:33.832Z,17.07
2023-05-22T07:55:04.624Z,21.60
2023-05-22T07:57:36.619Z,15.03
2023-05-22T08:00:14.709Z,13.40
2023-05-22T08:02:44.066Z,15.20
2023-05-22T08:05:15.053Z,17.30
2023-05-22T08:07:44.465Z,24.53
2023-05-22T08:10:16.364Z,33.63
2023-05-22T08:12:45.400Z,14.17
2023-05-22T08:15:18.929Z,19.53
2023-05-22T08:17:49.246Z,17.73
2023-05-22T08:20:18.657Z,23.53
2023-05-22T08:22:47.802Z,16.53
2023-05-22T08:25:17.218Z,12.70
2023-05-22T08:27:46.624Z,16.77
2023-05-22T08:30:18.684Z,18.10
2023-05-22T08:32:48.029Z,22.13
2023-05-22T08:35:17.243Z,16.63
2023-05-22T08:37:47.489Z,15.67
2023-05-22T08:40:17.063Z,18.67
2023-05-22T08:42:46.147Z,22.10
2023-05-22T08:45:16.604Z,20.17
2023-05-22T08:47:51.915Z,18.87
2023-05-22T08:50:21.261Z,18.43
2023-05-22T08:52:54.109Z,19.87
2023-05-22T08:55:23.785Z,21.20
2023-05-22T08:57:53.271Z,25.90
2023-05-22T09:00:24.178Z,21.40
2023-05-22T09:02:56.200Z,20.97
2023-05-22T09:05:27.077Z,18.23
2023-05-22T09:08:02.789Z,17.00
2023-05-22T09:10:38.552Z,25.13
2023-05-22T09:13:09.437Z,28.83
2023-05-22T09:15:39.049Z,26.13
2023-05-22T09:18:09.662Z,20.23
2023-05-22T09:20:40.258Z,20.47
2023-05-22T09:23:17.925Z,22.13
2023-05-22T09:25:49.502Z,24.03
2023-05-22T09:28:18.961Z,29.20
2023-05-22T09:30:51.139Z,22.57
2023-05-22T09:33:22.421Z,37.10
2023-05-22T09:35:55.364Z,45.63
2023-05-22T09:38:25.117Z,38.13
2023-05-22T09:40:56.098Z,30.33
2023-05-22T09:43:25.764Z,33.40
2023-05-22T09:46:07.401Z,25.23
2023-05-22T09:48:38.627Z,26.17
2023-05-22T09:51:10.216Z,36.27
2023-05-22T09:53:39.918Z,41.13
2023-05-22T09:56:11.214Z,26.60
2023-05-22T09:58:43.646Z,21.83
2023-05-22T10:01:14.401Z,22.00
2023-05-22T10:03:47.289Z,20.53
2023-05-22T10:06:19.460Z,13.97
2023-05-22T10:08:53.546Z,16.20
2023-05-22T10:11:23.102Z,16.73
2023-05-22T10:13:52.472Z,20.50
2023-05-22T10:16:21.802Z,18.33
2023-05-22T10:18:52.790Z,18.40
2023-05-22T10:21:23.188Z,20.20
2023-05-22T10:23:54.482Z,19.67
2023-05-22T10:26:23.580Z,17.60
2023-05-22T10:28:56.401Z,17.80
2023-05-22T10:31:30.278Z,27.00
2023-05-22T10:34:02.953Z,14.67
2023-05-22T10:36:42.253Z,20.17
2023-05-22T10:39:19.061Z,21.30
2023-05-22T10:41:48.665Z,19.40
2023-05-22T10:44:17.640Z,24.40
2023-05-22T10:46:51.059Z,16.37
2023-05-22T10:49:26.193Z,20.67
2023-05-22T10:51:58.433Z,14.40
2023-05-22T10:54:42.008Z,14.83
2023-05-22T10:57:16.774Z,15.47
2023-05-22T10:59:45.973Z,13.67
2023-05-22T11:02:22.562Z,15.20
2023-05-22T11:04:53.153Z,23.77
2023-05-22T11:07:22.135Z,20.23
2023-05-22T11:09:53.944Z,18.37
2023-05-22T11:12:27.630Z,20.17
2023-05-22T11:14:58.188Z,20.60
2023-05-22T11:17:27.968Z,19.53
2023-05-22T11:20:02.750Z,14.47
2023-05-22T11:22:32.644Z,19.70
2023-05-22T11:25:01.936Z,16.33
2023-05-22T11:27:31.900Z,14.43
2023-05-22T11:30:02.860Z,18.77
2023-05-22T11:32:32.629Z,19.87
2023-05-22T11:35:06.335Z,15.20
2023-05-22T11:37:36.479Z,18.63
2023-05-22T11:40:06.290Z,18.43
2023-05-22T11:42:35.262Z,22.27
2023-05-22T11:45:04.685Z,15.57
2023-05-22T11:47:34.891Z,17.40
2023-05-22T11:50:40.351Z,24.03
2023-05-22T11:53:13.551Z,22.90
2023-05-22T11:55:46.419Z,18.13
2023-05-22T11:58:16.092Z,17.50
2023-05-22T12:00:46.191Z,21.30
2023-05-22T12:03:15.253Z,19.27
2023-05-22T12:05:49.417Z,18.43
2023-05-22T12:08:18.591Z,17.40
2023-05-22T12:10:52.364Z,19.57
2023-05-22T12:13:33.253Z,21.47
2023-05-22T12:16:03.566Z,19.87
2023-05-22T12:18:42.394Z,18.40
2023-05-22T12:21:23.728Z,16.40
2023-05-22T12:24:03.172Z,17.10
2023-05-22T12:26:44.878Z,16.63
2023-05-22T12:29:17.786Z,14.97
2023-05-22T12:31:56.628Z,20.93
2023-05-22T12:34:29.131Z,20.27
2023-05-22T12:37:00.217Z,18.83
2023-05-22T12:39:38.274Z,16.90
2023-05-22T12:42:09.220Z,16.80
2023-05-22T12:44:42.213Z,17.27
2023-05-22T12:47:11.804Z,18.07
2023-05-22T12:49:41.170Z,17.33
2023-05-22T12:52:21.457Z,15.70
2023-05-22T12:54:51.054Z,16.87
2023-05-22T12:57:24.704Z,13.77
2023-05-22T13:00:34.216Z,14.40
2023-05-22T13:03:07.348Z,14.77
2023-05-22T13:05:41.625Z,16.83
2023-05-22T13:08:14.496Z,15.77
2023-05-22T13:10:44.860Z,10.90
2023-05-22T13:13:14.223Z,14.90
2023-05-22T13:15:44.403Z,18.20
2023-05-22T13:18:13.362Z,20.27
2023-05-22T13:20:42.429Z,14.43
2023-05-22T13:23:12.816Z,17.57
2023-05-22T13:25:43.668Z,14.27
2023-05-22T13:28:12.465Z,13.40
2023-05-22T13:30:41.615Z,16.13
2023-05-22T13:33:11.236Z,16.97
2023-05-22T13:35:40.719Z,16.43
2023-05-22T13:38:15.030Z,12.87
2023-05-22T13:40:49.748Z,14.77
2023-05-22T13:43:19.124Z,15.80
2023-05-22T13:45:48.751Z,15.90
2023-05-22T13:48:17.625Z,14.90
2023-05-22T13:50:46.599Z,10.83
2023-05-22T13:53:16.908Z,16.53
2023-05-22T13:55:46.622Z,15.80
2023-05-22T13:58:16.194Z,12.23
2023-05-22T14:00:45.378Z,14.53
2023-05-22T14:03:17.933Z,17.17
2023-05-22T14:05:47.518Z,12.27
2023-05-22T14:08:17.899Z,11.37
2023-05-22T14:10:47.369Z,20.23
2023-05-22T14:13:16.544Z,11.80
2023-05-22T14:15:47.153Z,13.00
2023-05-22T14:18:16.607Z,17.63
2023-05-22T14:20:47.010Z,12.17
2023-05-22T14:23:17.951Z,6.87
2023-05-22T14:25:47.015Z,12.00
2023-05-22T14:28:16.238Z,11.90
2023-05-22T14:30:45.470Z,10.30
2023-05-22T14:33:14.877Z,8.77
2023-05-22T14:35:44.612Z,11.40
2023-05-22T14:38:13.481Z,13.60
2023-05-22T14:40:45.050Z,13.03
2023-05-22T14:43:13.931Z,9.07
2023-05-22T14:45:43.054Z,7.57
2023-05-22T14:48:12.995Z,11.00
2023-05-22T14:50:42.013Z,10.23
2023-05-22T14:53:10.937Z,9.20
2023-05-22T14:55:40.396Z,11.50
2023-05-22T14:58:11.235Z,10.00
2023-05-22T15:00:40.129Z,11.50
2023-05-22T15:03:09.009Z,14.03
2023-05-22T15:05:38.197Z,12.57
2023-05-22T15:08:07.637Z,16.20
2023-05-22T15:10:37.047Z,15.50
2023-05-22T15:13:06.705Z,18.10
2023-05-22T15:15:40.288Z,14.37
2023-05-22T15:18:13.417Z,17.83
2023-05-22T15:20:42.768Z,25.87
2023-05-22T15:23:14.963Z,18.10
2023-05-22T15:25:46.865Z,15.73
2023-05-22T15:28:17.405Z,12.17
2023-05-22T15:30:49.094Z,20.40
2023-05-22T15:33:18.415Z,23.10
2023-05-22T15:35:48.251Z,20.23
2023-05-22T15:38:18.297Z,26.23
2023-05-22T15:40:47.290Z,15.50
2023-05-22T15:43:17.035Z,21.10
2023-05-22T15:45:48.957Z,22.47
2023-05-22T15:48:19.079Z,18.70
2023-05-22T15:50:48.116Z,18.50
2023-05-22T15:53:17.568Z,30.53
2023-05-22T15:55:48.095Z,17.20
2023-05-22T15:58:16.950Z,20.87
2023-05-22T16:00:47.279Z,21.37
2023-05-22T16:03:19.900Z,12.43
2023-05-22T16:05:49.278Z,33.00
2023-05-22T16:08:18.433Z,14.90
2023-05-22T16:10:47.600Z,10.37
2023-05-22T16:13:17.273Z,18.50
2023-05-22T16:15:47.891Z,16.47
2023-05-22T16:18:17.277Z,16.60
2023-05-22T16:20:46.773Z,18.47
2023-05-22T16:23:15.780Z,10.90
2023-05-22T16:25:44.796Z,10.77
2023-05-22T16:28:14.940Z,11.67
2023-05-22T16:30:43.781Z,10.80
2023-05-22T16:33:14.329Z,10.47
2023-05-22T16:35:46.981Z,11.87
2023-05-22T16:38:18.355Z,9.40
2023-05-22T16:40:47.222Z,5.80
2023-05-22T16:43:16.919Z,7.10
2023-05-22T16:45:47.804Z,9.83
2023-05-22T16:48:18.628Z,4.77
2023-05-22T16:50:47.932Z,8.13
2023-05-22T16:53:17.485Z,5.17
2023-05-22T16:55:46.428Z,4.90
2023-05-22T16:58:15.659Z,8.80
2023-05-22T17:00:44.605Z,5.20
2023-05-22T17:03:17.078Z,5.60
2023-05-22T17:05:47.987Z,9.33
2023-05-22T17:08:17.359Z,6.43
2023-05-22T17:10:46.341Z,4.80
2023-05-22T17:13:21.028Z,6.50
2023-05-22T17:15:50.208Z,6.13
2023-05-22T17:18:21.053Z,6.73
2023-05-22T17:20:54.147Z,5.23
2023-05-22T17:23:24.512Z,5.67
2023-05-22T17:25:53.648Z,9.37
2023-05-22T17:28:22.488Z,7.07
2023-05-22T17:30:52.427Z,13.17
2023-05-22T17:33:21.426Z,7.70
2023-05-22T17:35:52.909Z,14.43
2023-05-22T17:38:22.149Z,7.20
2023-05-22T17:40:53.016Z,6.70
2023-05-22T17:43:22.202Z,13.83
2023-05-22T17:45:51.318Z,6.07
2023-05-22T17:48:23.912Z,8.70
2023-05-22T17:50:54.907Z,12.80
2023-05-22T17:53:24.045Z,11.23
2023-05-22T17:55:53.641Z,7.60
2023-05-22T17:58:22.973Z,9.33
2023-05-22T18:00:52.368Z,9.47
2023-05-22T18:03:21.738Z,6.23
2023-05-22T18:05:51.250Z,6.90
2023-05-22T18:08:22.305Z,14.17
2023-05-22T18:10:51.538Z,19.57
2023-05-22T18:13:20.716Z,8.17
2023-05-22T18:15:51.730Z,12.40
2023-05-22T18:18:26.536Z,13.40
2023-05-22T18:20:56.862Z,8.10
2023-05-22T18:23:30.865Z,8.40
2023-05-22T18:26:00.180Z,9.47
2023-05-22T18:28:29.913Z,8.70
2023-05-22T18:30:59.380Z,11.53
2023-05-22T18:33:30.406Z,9.10
2023-05-22T18:36:00.910Z,12.70
2023-05-22T18:38:33.840Z,9.70
2023-05-22T18:41:04.300Z,11.93
2023-05-22T18:43:35.806Z,7.70
2023-05-22T18:46:06.166Z,11.70
2023-05-22T18:48:37.048Z,7.37
2023-05-22T18:51:06.327Z,7.00
2023-05-22T18:56:26.452Z,4.60
2023-05-22T18:58:58.156Z,3.90
2023-05-22T19:01:29.440Z,5.40
2023-05-22T19:03:58.991Z,6.90
2023-05-22T19:06:32.196Z,4.93
2023-05-22T19:09:08.721Z,11.97
2023-05-22T19:11:37.892Z,6.53
2023-05-22T19:14:07.572Z,3.73
2023-05-22T19:16:37.915Z,3.97
2023-05-22T19:19:11.782Z,4.90
2023-05-22T19:21:41.333Z,3.57
2023-05-22T19:24:12.323Z,5.70
2023-05-22T19:26:42.285Z,3.70
2023-05-22T19:29:16.274Z,5.73
2023-05-22T19:31:54.490Z,3.37
2023-05-22T19:34:24.058Z,3.93
2023-05-22T19:36:57.976Z,5.00
2023-05-22T19:39:28.769Z,2.87
2023-05-22T19:42:02.447Z,3.37
2023-05-22T19:44:32.085Z,2.53
2023-05-22T19:47:03.128Z,6.00
2023-05-22T19:49:37.158Z,2.90
2023-05-22T19:52:09.081Z,2.90
2023-05-22T19:54:41.652Z,8.10
2023-05-22T19:57:11.005Z,4.20
2023-05-22T19:59:40.626Z,2.80
2023-05-22T20:02:10.143Z,7.53
2023-05-22T20:04:43.505Z,2.80
2023-05-22T20:07:13.817Z,4.00
2023-05-22T20:09:44.594Z,4.33
2023-05-22T20:12:14.976Z,2.97
2023-05-22T20:14:43.949Z,2.87
2023-05-22T20:17:12.802Z,3.53
2023-05-22T20:19:45.236Z,2.53
2023-05-22T20:22:15.038Z,4.73
2023-05-22T20:24:45.637Z,2.90
2023-05-22T20:27:14.589Z,3.70
2023-05-22T20:29:43.366Z,2.50
2023-05-22T20:32:12.698Z,4.73
2023-05-22T20:34:42.556Z,3.73
2023-05-22T20:37:12.446Z,5.80
2023-05-22T20:39:42.549Z,2.03
2023-05-22T20:42:13.318Z,4.77
2023-05-22T20:44:43.199Z,6.73
2023-05-22T20:47:12.090Z,5.17
2023-05-22T20:49:41.456Z,3.30
2023-05-22T20:52:10.601Z,3.67
2023-05-22T20:54:40.074Z,4.33
2023-05-22T20:57:08.980Z,4.20
2023-05-22T20:59:39.740Z,4.17
2023-05-22T21:02:09.560Z,3.63
2023-05-22T21:04:38.943Z,3.57
2023-05-22T21:07:08.215Z,5.67
2023-05-22T21:09:39.722Z,3.90
2023-05-22T21:12:09.158Z,4.77
2023-05-22T21:14:40.432Z,3.47
2023-05-22T21:17:09.461Z,3.43
2023-05-22T21:19:38.617Z,2.63
2023-05-22T21:22:07.968Z,12.90
2023-05-22T21:24:37.319Z,7.00
2023-05-22T21:27:06.200Z,5.40
2023-05-22T21:29:35.218Z,2.77
2023-05-22T21:32:05.551Z,3.00
2023-05-22T21:34:34.894Z,5.53
2023-05-22T21:37:03.794Z,3.50
2023-05-22T21:39:32.824Z,4.43
2023-05-22T21:42:01.910Z,4.67
2023-05-22T21:44:31.417Z,5.50
2023-05-22T21:47:00.276Z,4.13
2023-05-22T21:49:31.034Z,2.97
2023-05-22T21:51:59.850Z,4.23
2023-05-22T21:54:28.734Z,4.30
2023-05-22T21:56:57.597Z,3.03
2023-05-22T21:59:26.568Z,3.47
2023-05-22T22:01:55.576Z,3.33
2023-05-22T22:04:24.915Z,3.43
2023-05-22T22:06:55.582Z,2.83
2023-05-22T22:09:24.411Z,2.40
2023-05-22T22:11:56.755Z,4.27
2023-05-22T22:14:27.343Z,4.27
2023-05-22T22:16:56.978Z,3.43
2023-05-22T22:19:26.116Z,6.87
2023-05-22T22:21:56.773Z,2.50
2023-05-22T22:24:26.364Z,8.90
2023-05-22T22:26:55.602Z,4.20
2023-05-22T22:29:24.529Z,4.47
2023-05-22T22:31:53.857Z,9.03
2023-05-22T22:34:24.866Z,5.73
2023-05-22T22:36:54.454Z,3.77
2023-05-22T22:39:30.646Z,4.87
2023-05-22T22:42:04.522Z,9.53
2023-05-22T22:44:33.541Z,6.30
2023-05-22T22:47:04.791Z,5.53
2023-05-22T22:49:33.990Z,5.50
2023-05-22T22:52:03.090Z,4.30
2023-05-22T22:54:33.601Z,7.50
2023-05-22T22:57:08.708Z,4.43
2023-05-22T22:59:38.703Z,7.30
2023-05-22T23:02:08.431Z,3.67
2023-05-22T23:04:37.302Z,7.17
2023-05-22T23:07:06.288Z,6.67
2023-05-22T23:09:36.591Z,4.63
2023-05-22T23:12:06.543Z,5.73
2023-05-22T23:14:37.824Z,11.23
2023-05-22T23:17:06.732Z,4.60
2023-05-22T23:19:36.492Z,7.97
2023-05-22T23:22:05.333Z,5.67
2023-05-22T23:24:34.227Z,5.40
2023-05-22T23:27:04.568Z,4.03
2023-05-22T23:29:33.810Z,5.23
2023-05-22T23:32:02.708Z,6.30
2023-05-22T23:34:31.654Z,5.33
2023-05-22T23:37:00.842Z,4.93
2023-05-22T23:39:29.640Z,3.93
2023-05-22T23:42:02.285Z,6.10
2023-05-22T23:44:33.317Z,2.60
2023-05-22T23:47:02.639Z,6.23
2023-05-22T23:49:31.672Z,2.13
2023-05-22T23:52:01.209Z,6.80
2023-05-22T23:54:29.916Z,2.40
